sensor_id;sensor_type;location;lat;lon;timestamp;P1;durP1;ratioP1;P2;durP2;ratioP2
33826;SDS011;20128;45.582;5.298;2024-01-30T00:01:42;19.00;;;9.88;;
33826;SDS011;20128;45.582;5.298;2024-01-30T00:04:08;20.25;;;10.40;;
33826;SDS011;20128;45.582;5.298;2024-01-30T00:06:33;21.33;;;11.20;;
33826;SDS011;20128;45.582;5.298;2024-01-30T00:08:59;22.55;;;11.20;;
33826;SDS011;20128;45.582;5.298;2024-01-30T00:11:25;18.23;;;9.43;;
33826;SDS011;20128;45.582;5.298;2024-01-30T00:13:53;15.80;;;8.77;;
33826;SDS011;20128;45.582;5.298;2024-01-30T00:16:21;23.38;;;10.50;;
33826;SDS011;20128;45.582;5.298;2024-01-30T00:18:49;19.02;;;8.63;;
33826;SDS011;20128;45.582;5.298;2024-01-30T00:21:15;22.35;;;10.32;;
33826;SDS011;20128;45.582;5.298;2024-01-30T00:23:41;27.48;;;10.77;;
33826;SDS011;20128;45.582;5.298;2024-01-30T00:26:06;25.70;;;10.27;;
33826;SDS011;20128;45.582;5.298;2024-01-30T00:28:32;24.88;;;10.18;;
33826;SDS011;20128;45.582;5.298;2024-01-30T00:30:58;23.40;;;10.35;;
33826;SDS011;20128;45.582;5.298;2024-01-30T00:33:23;23.45;;;9.95;;
33826;SDS011;20128;45.582;5.298;2024-01-30T00:35:49;23.35;;;9.95;;
33826;SDS011;20128;45.582;5.298;2024-01-30T00:38:14;21.17;;;9.70;;
33826;SDS011;20128;45.582;5.298;2024-01-30T00:40:40;18.58;;;9.90;;
33826;SDS011;20128;45.582;5.298;2024-01-30T00:43:06;18.95;;;9.48;;
33826;SDS011;20128;45.582;5.298;2024-01-30T00:45:32;17.52;;;10.05;;
33826;SDS011;20128;45.582;5.298;2024-01-30T00:47:57;20.55;;;9.98;;
33826;SDS011;20128;45.582;5.298;2024-01-30T00:50:23;19.70;;;8.98;;
33826;SDS011;20128;45.582;5.298;2024-01-30T00:52:48;30.08;;;12.73;;
33826;SDS011;20128;45.582;5.298;2024-01-30T00:55:14;34.67;;;13.30;;
33826;SDS011;20128;45.582;5.298;2024-01-30T00:57:40;26.75;;;12.18;;
33826;SDS011;20128;45.582;5.298;2024-01-30T01:00:06;23.35;;;12.35;;
33826;SDS011;20128;45.582;5.298;2024-01-30T01:02:34;35.50;;;13.68;;
33826;SDS011;20128;45.582;5.298;2024-01-30T01:05:00;21.38;;;11.32;;
33826;SDS011;20128;45.582;5.298;2024-01-30T01:07:26;25.70;;;13.68;;
33826;SDS011;20128;45.582;5.298;2024-01-30T01:09:52;21.10;;;12.07;;
33826;SDS011;20128;45.582;5.298;2024-01-30T01:12:17;27.55;;;12.10;;
33826;SDS011;20128;45.582;5.298;2024-01-30T01:14:43;20.40;;;12.45;;
33826;SDS011;20128;45.582;5.298;2024-01-30T01:17:08;28.48;;;12.60;;
33826;SDS011;20128;45.582;5.298;2024-01-30T01:19:34;27.23;;;13.05;;
33826;SDS011;20128;45.582;5.298;2024-01-30T01:22:00;23.63;;;12.80;;
33826;SDS011;20128;45.582;5.298;2024-01-30T01:24:25;26.27;;;12.63;;
33826;SDS011;20128;45.582;5.298;2024-01-30T01:26:51;25.50;;;12.10;;
33826;SDS011;20128;45.582;5.298;2024-01-30T01:29:17;25.52;;;11.90;;
33826;SDS011;20128;45.582;5.298;2024-01-30T01:31:42;22.25;;;11.80;;
33826;SDS011;20128;45.582;5.298;2024-01-30T01:34:09;20.27;;;12.50;;
33826;SDS011;20128;45.582;5.298;2024-01-30T01:36:35;24.17;;;12.95;;
33826;SDS011;20128;45.582;5.298;2024-01-30T01:39:01;21.50;;;11.88;;
33826;SDS011;20128;45.582;5.298;2024-01-30T01:41:34;26.65;;;12.20;;
33826;SDS011;20128;45.582;5.298;2024-01-30T01:44:00;24.90;;;10.48;;
33826;SDS011;20128;45.582;5.298;2024-01-30T01:46:26;22.05;;;11.05;;
33826;SDS011;20128;45.582;5.298;2024-01-30T01:48:53;25.67;;;11.15;;
33826;SDS011;20128;45.582;5.298;2024-01-30T01:51:19;24.73;;;11.77;;
33826;SDS011;20128;45.582;5.298;2024-01-30T01:53:46;22.80;;;11.65;;
33826;SDS011;20128;45.582;5.298;2024-01-30T01:56:12;19.88;;;11.63;;
33826;SDS011;20128;45.582;5.298;2024-01-30T01:58:38;22.63;;;11.73;;
33826;SDS011;20128;45.582;5.298;2024-01-30T02:01:04;23.33;;;10.65;;
33826;SDS011;20128;45.582;5.298;2024-01-30T02:03:30;18.35;;;10.32;;
33826;SDS011;20128;45.582;5.298;2024-01-30T02:05:56;21.13;;;12.05;;
33826;SDS011;20128;45.582;5.298;2024-01-30T02:08:22;22.65;;;10.73;;
33826;SDS011;20128;45.582;5.298;2024-01-30T02:10:49;22.70;;;12.32;;
33826;SDS011;20128;45.582;5.298;2024-01-30T02:13:15;26.08;;;12.23;;
33826;SDS011;20128;45.582;5.298;2024-01-30T02:15:40;23.40;;;11.25;;
33826;SDS011;20128;45.582;5.298;2024-01-30T02:18:06;23.35;;;12.60;;
33826;SDS011;20128;45.582;5.298;2024-01-30T02:20:32;31.55;;;12.32;;
33826;SDS011;20128;45.582;5.298;2024-01-30T02:23:00;27.50;;;12.82;;
33826;SDS011;20128;45.582;5.298;2024-01-30T02:25:33;23.10;;;12.07;;
33826;SDS011;20128;45.582;5.298;2024-01-30T02:28:01;19.60;;;10.98;;
33826;SDS011;20128;45.582;5.298;2024-01-30T02:30:27;22.85;;;11.95;;
33826;SDS011;20128;45.582;5.298;2024-01-30T02:32:53;26.40;;;11.23;;
33826;SDS011;20128;45.582;5.298;2024-01-30T02:38:41;24.38;;;13.85;;
33826;SDS011;20128;45.582;5.298;2024-01-30T02:41:06;19.38;;;10.57;;
33826;SDS011;20128;45.582;5.298;2024-01-30T02:43:32;27.48;;;12.27;;
33826;SDS011;20128;45.582;5.298;2024-01-30T02:45:57;18.73;;;10.30;;
33826;SDS011;20128;45.582;5.298;2024-01-30T02:48:25;20.83;;;10.15;;
33826;SDS011;20128;45.582;5.298;2024-01-30T02:50:51;23.25;;;11.52;;
33826;SDS011;20128;45.582;5.298;2024-01-30T02:53:17;19.70;;;10.63;;
33826;SDS011;20128;45.582;5.298;2024-01-30T02:55:42;27.13;;;10.23;;
33826;SDS011;20128;45.582;5.298;2024-01-30T02:58:08;23.83;;;10.45;;
33826;SDS011;20128;45.582;5.298;2024-01-30T03:00:34;18.88;;;10.48;;
33826;SDS011;20128;45.582;5.298;2024-01-30T03:03:00;17.58;;;10.38;;
33826;SDS011;20128;45.582;5.298;2024-01-30T03:05:25;22.08;;;10.35;;
33826;SDS011;20128;45.582;5.298;2024-01-30T03:07:51;29.00;;;10.57;;
33826;SDS011;20128;45.582;5.298;2024-01-30T03:10:17;21.63;;;10.27;;
33826;SDS011;20128;45.582;5.298;2024-01-30T03:12:42;17.73;;;11.18;;
33826;SDS011;20128;45.582;5.298;2024-01-30T03:15:08;20.95;;;10.75;;
33826;SDS011;20128;45.582;5.298;2024-01-30T03:17:34;21.70;;;11.07;;
33826;SDS011;20128;45.582;5.298;2024-01-30T03:20:01;21.63;;;11.20;;
33826;SDS011;20128;45.582;5.298;2024-01-30T03:22:28;18.27;;;10.38;;
33826;SDS011;20128;45.582;5.298;2024-01-30T03:24:54;22.05;;;10.70;;
33826;SDS011;20128;45.582;5.298;2024-01-30T03:27:20;21.67;;;12.20;;
33826;SDS011;20128;45.582;5.298;2024-01-30T03:29:45;25.98;;;11.70;;
33826;SDS011;20128;45.582;5.298;2024-01-30T03:32:11;22.38;;;10.57;;
33826;SDS011;20128;45.582;5.298;2024-01-30T03:34:36;24.30;;;10.77;;
33826;SDS011;20128;45.582;5.298;2024-01-30T03:37:02;20.65;;;10.32;;
33826;SDS011;20128;45.582;5.298;2024-01-30T03:39:28;28.50;;;12.07;;
33826;SDS011;20128;45.582;5.298;2024-01-30T03:41:53;20.17;;;9.93;;
33826;SDS011;20128;45.582;5.298;2024-01-30T03:44:19;19.20;;;11.07;;
33826;SDS011;20128;45.582;5.298;2024-01-30T03:46:45;20.85;;;11.13;;
33826;SDS011;20128;45.582;5.298;2024-01-30T03:49:11;19.50;;;10.65;;
33826;SDS011;20128;45.582;5.298;2024-01-30T03:51:36;20.58;;;11.25;;
33826;SDS011;20128;45.582;5.298;2024-01-30T03:54:02;24.33;;;11.18;;
33826;SDS011;20128;45.582;5.298;2024-01-30T03:56:27;25.48;;;11.48;;
33826;SDS011;20128;45.582;5.298;2024-01-30T03:58:53;17.95;;;10.38;;
33826;SDS011;20128;45.582;5.298;2024-01-30T04:01:19;20.48;;;10.27;;
33826;SDS011;20128;45.582;5.298;2024-01-30T04:03:44;20.30;;;10.65;;
33826;SDS011;20128;45.582;5.298;2024-01-30T04:06:10;17.63;;;9.25;;
33826;SDS011;20128;45.582;5.298;2024-01-30T04:08:37;26.58;;;10.23;;
33826;SDS011;20128;45.582;5.298;2024-01-30T04:11:03;17.27;;;9.55;;
33826;SDS011;20128;45.582;5.298;2024-01-30T04:13:30;18.83;;;8.93;;
33826;SDS011;20128;45.582;5.298;2024-01-30T04:15:56;20.85;;;9.80;;
33826;SDS011;20128;45.582;5.298;2024-01-30T04:18:23;19.60;;;9.35;;
33826;SDS011;20128;45.582;5.298;2024-01-30T04:20:49;17.83;;;9.80;;
33826;SDS011;20128;45.582;5.298;2024-01-30T04:23:14;25.73;;;10.60;;
33826;SDS011;20128;45.582;5.298;2024-01-30T04:25:40;24.95;;;10.35;;
33826;SDS011;20128;45.582;5.298;2024-01-30T04:28:05;23.13;;;10.65;;
33826;SDS011;20128;45.582;5.298;2024-01-30T04:30:31;19.05;;;10.18;;
33826;SDS011;20128;45.582;5.298;2024-01-30T04:32:57;26.67;;;9.63;;
33826;SDS011;20128;45.582;5.298;2024-01-30T04:35:22;21.08;;;10.05;;
33826;SDS011;20128;45.582;5.298;2024-01-30T04:37:49;28.52;;;10.40;;
33826;SDS011;20128;45.582;5.298;2024-01-30T04:40:17;18.65;;;9.95;;
33826;SDS011;20128;45.582;5.298;2024-01-30T04:42:42;27.15;;;12.30;;
33826;SDS011;20128;45.582;5.298;2024-01-30T04:45:08;22.45;;;10.27;;
33826;SDS011;20128;45.582;5.298;2024-01-30T04:47:34;20.48;;;10.05;;
33826;SDS011;20128;45.582;5.298;2024-01-30T04:50:00;20.45;;;10.15;;
33826;SDS011;20128;45.582;5.298;2024-01-30T04:52:27;20.60;;;10.27;;
33826;SDS011;20128;45.582;5.298;2024-01-30T04:54:53;20.88;;;10.27;;
33826;SDS011;20128;45.582;5.298;2024-01-30T04:57:18;25.05;;;10.65;;
33826;SDS011;20128;45.582;5.298;2024-01-30T04:59:44;21.77;;;10.05;;
33826;SDS011;20128;45.582;5.298;2024-01-30T05:02:09;21.70;;;10.18;;
33826;SDS011;20128;45.582;5.298;2024-01-30T05:04:35;22.55;;;10.27;;
33826;SDS011;20128;45.582;5.298;2024-01-30T05:07:00;17.38;;;9.50;;
33826;SDS011;20128;45.582;5.298;2024-01-30T05:09:26;20.58;;;9.88;;
33826;SDS011;20128;45.582;5.298;2024-01-30T05:11:52;23.30;;;9.85;;
33826;SDS011;20128;45.582;5.298;2024-01-30T05:14:17;15.85;;;9.93;;
33826;SDS011;20128;45.582;5.298;2024-01-30T05:16:43;21.17;;;9.07;;
33826;SDS011;20128;45.582;5.298;2024-01-30T05:19:11;21.80;;;9.25;;
33826;SDS011;20128;45.582;5.298;2024-01-30T05:21:39;17.75;;;8.75;;
33826;SDS011;20128;45.582;5.298;2024-01-30T05:24:05;19.63;;;9.65;;
33826;SDS011;20128;45.582;5.298;2024-01-30T05:26:30;21.42;;;9.40;;
33826;SDS011;20128;45.582;5.298;2024-01-30T05:28:56;17.48;;;9.20;;
33826;SDS011;20128;45.582;5.298;2024-01-30T05:31:22;25.30;;;9.95;;
33826;SDS011;20128;45.582;5.298;2024-01-30T05:33:48;16.20;;;9.38;;
33826;SDS011;20128;45.582;5.298;2024-01-30T05:36:13;20.35;;;9.77;;
33826;SDS011;20128;45.582;5.298;2024-01-30T05:38:42;21.40;;;9.20;;
33826;SDS011;20128;45.582;5.298;2024-01-30T05:41:08;15.50;;;8.80;;
33826;SDS011;20128;45.582;5.298;2024-01-30T05:43:34;25.15;;;10.57;;
33826;SDS011;20128;45.582;5.298;2024-01-30T05:46:00;16.35;;;9.02;;
33826;SDS011;20128;45.582;5.298;2024-01-30T05:48:25;16.75;;;8.75;;
33826;SDS011;20128;45.582;5.298;2024-01-30T05:50:51;22.63;;;10.32;;
33826;SDS011;20128;45.582;5.298;2024-01-30T05:53:17;17.13;;;10.25;;
33826;SDS011;20128;45.582;5.298;2024-01-30T05:55:42;17.33;;;10.45;;
33826;SDS011;20128;45.582;5.298;2024-01-30T05:58:08;22.80;;;10.23;;
33826;SDS011;20128;45.582;5.298;2024-01-30T06:00:33;25.63;;;12.70;;
33826;SDS011;20128;45.582;5.298;2024-01-30T06:02:59;27.63;;;13.70;;
33826;SDS011;20128;45.582;5.298;2024-01-30T06:05:25;32.15;;;13.90;;
33826;SDS011;20128;45.582;5.298;2024-01-30T06:07:50;30.48;;;14.35;;
33826;SDS011;20128;45.582;5.298;2024-01-30T06:10:16;25.02;;;13.60;;
33826;SDS011;20128;45.582;5.298;2024-01-30T06:12:42;29.23;;;14.65;;
33826;SDS011;20128;45.582;5.298;2024-01-30T06:15:07;26.33;;;13.95;;
33826;SDS011;20128;45.582;5.298;2024-01-30T06:17:33;24.23;;;12.43;;
33826;SDS011;20128;45.582;5.298;2024-01-30T06:19:59;20.35;;;11.90;;
33826;SDS011;20128;45.582;5.298;2024-01-30T06:22:24;23.20;;;12.90;;
33826;SDS011;20128;45.582;5.298;2024-01-30T06:24:50;22.80;;;12.30;;
33826;SDS011;20128;45.582;5.298;2024-01-30T06:27:16;28.27;;;12.85;;
33826;SDS011;20128;45.582;5.298;2024-01-30T06:29:42;26.45;;;11.88;;
33826;SDS011;20128;45.582;5.298;2024-01-30T06:32:08;26.02;;;12.20;;
33826;SDS011;20128;45.582;5.298;2024-01-30T06:34:34;22.90;;;12.20;;
33826;SDS011;20128;45.582;5.298;2024-01-30T06:37:00;26.83;;;13.27;;
33826;SDS011;20128;45.582;5.298;2024-01-30T06:39:26;37.35;;;14.57;;
33826;SDS011;20128;45.582;5.298;2024-01-30T06:41:52;31.83;;;15.25;;
33826;SDS011;20128;45.582;5.298;2024-01-30T06:44:17;27.95;;;13.48;;
33826;SDS011;20128;45.582;5.298;2024-01-30T06:46:43;26.88;;;13.55;;
33826;SDS011;20128;45.582;5.298;2024-01-30T06:49:09;26.33;;;14.70;;
33826;SDS011;20128;45.582;5.298;2024-01-30T06:51:34;34.42;;;13.27;;
33826;SDS011;20128;45.582;5.298;2024-01-30T06:54:00;27.70;;;14.32;;
33826;SDS011;20128;45.582;5.298;2024-01-30T06:56:25;27.33;;;14.02;;
33826;SDS011;20128;45.582;5.298;2024-01-30T06:58:51;31.63;;;15.93;;
33826;SDS011;20128;45.582;5.298;2024-01-30T07:01:17;30.05;;;14.82;;
33826;SDS011;20128;45.582;5.298;2024-01-30T07:03:42;29.85;;;15.70;;
33826;SDS011;20128;45.582;5.298;2024-01-30T07:06:08;26.75;;;15.18;;
33826;SDS011;20128;45.582;5.298;2024-01-30T07:08:38;28.40;;;15.10;;
33826;SDS011;20128;45.582;5.298;2024-01-30T07:11:04;29.48;;;15.68;;
33826;SDS011;20128;45.582;5.298;2024-01-30T07:13:31;29.75;;;15.23;;
33826;SDS011;20128;45.582;5.298;2024-01-30T07:15:56;37.33;;;15.60;;
33826;SDS011;20128;45.582;5.298;2024-01-30T07:18:22;33.20;;;16.42;;
33826;SDS011;20128;45.582;5.298;2024-01-30T07:20:48;41.28;;;16.48;;
33826;SDS011;20128;45.582;5.298;2024-01-30T07:23:14;65.88;;;31.13;;
33826;SDS011;20128;45.582;5.298;2024-01-30T07:25:42;40.67;;;20.48;;
33826;SDS011;20128;45.582;5.298;2024-01-30T07:28:11;67.10;;;27.17;;
33826;SDS011;20128;45.582;5.298;2024-01-30T07:30:41;767.13;;;191.40;;
33826;SDS011;20128;45.582;5.298;2024-01-30T07:33:07;988.05;;;310.20;;
33826;SDS011;20128;45.582;5.298;2024-01-30T07:35:33;889.85;;;234.63;;
33826;SDS011;20128;45.582;5.298;2024-01-30T07:37:59;1625.57;;;470.70;;
33826;SDS011;20128;45.582;5.298;2024-01-30T07:40:25;1690.78;;;509.20;;
33826;SDS011;20128;45.582;5.298;2024-01-30T07:42:50;1778.13;;;575.97;;
33826;SDS011;20128;45.582;5.298;2024-01-30T07:45:18;1391.80;;;486.55;;
33826;SDS011;20128;45.582;5.298;2024-01-30T07:47:47;710.78;;;290.50;;
33826;SDS011;20128;45.582;5.298;2024-01-30T07:50:16;280.83;;;124.05;;
33826;SDS011;20128;45.582;5.298;2024-01-30T07:52:42;136.00;;;65.78;;
33826;SDS011;20128;45.582;5.298;2024-01-30T07:55:08;63.72;;;29.13;;
33826;SDS011;20128;45.582;5.298;2024-01-30T07:57:34;37.90;;;17.75;;
33826;SDS011;20128;45.582;5.298;2024-01-30T08:00:00;40.13;;;18.10;;
33826;SDS011;20128;45.582;5.298;2024-01-30T08:02:26;32.72;;;18.98;;
33826;SDS011;20128;45.582;5.298;2024-01-30T08:04:52;35.00;;;17.42;;
33826;SDS011;20128;45.582;5.298;2024-01-30T08:07:17;37.00;;;16.65;;
33826;SDS011;20128;45.582;5.298;2024-01-30T08:09:43;34.83;;;17.58;;
33826;SDS011;20128;45.582;5.298;2024-01-30T08:12:09;33.08;;;17.75;;
33826;SDS011;20128;45.582;5.298;2024-01-30T08:14:34;34.63;;;16.05;;
33826;SDS011;20128;45.582;5.298;2024-01-30T08:17:03;36.92;;;18.88;;
33826;SDS011;20128;45.582;5.298;2024-01-30T08:19:28;33.60;;;18.80;;
33826;SDS011;20128;45.582;5.298;2024-01-30T08:21:54;34.20;;;18.75;;
33826;SDS011;20128;45.582;5.298;2024-01-30T08:24:20;37.38;;;19.67;;
33826;SDS011;20128;45.582;5.298;2024-01-30T08:26:46;29.85;;;16.08;;
33826;SDS011;20128;45.582;5.298;2024-01-30T08:29:11;45.30;;;23.48;;
33826;SDS011;20128;45.582;5.298;2024-01-30T08:31:37;32.47;;;16.88;;
33826;SDS011;20128;45.582;5.298;2024-01-30T08:34:03;38.25;;;17.55;;
33826;SDS011;20128;45.582;5.298;2024-01-30T08:36:28;64.60;;;32.80;;
33826;SDS011;20128;45.582;5.298;2024-01-30T08:38:54;145.18;;;62.67;;
33826;SDS011;20128;45.582;5.298;2024-01-30T08:41:19;64.22;;;30.95;;
33826;SDS011;20128;45.582;5.298;2024-01-30T08:43:45;289.70;;;111.85;;
33826;SDS011;20128;45.582;5.298;2024-01-30T08:46:11;346.15;;;132.40;;
33826;SDS011;20128;45.582;5.298;2024-01-30T08:48:37;487.13;;;205.10;;
33826;SDS011;20128;45.582;5.298;2024-01-30T08:51:02;341.20;;;158.98;;
33826;SDS011;20128;45.582;5.298;2024-01-30T08:53:28;370.75;;;199.57;;
33826;SDS011;20128;45.582;5.298;2024-01-30T08:55:54;211.38;;;112.85;;
33826;SDS011;20128;45.582;5.298;2024-01-30T08:58:19;64.45;;;34.10;;
33826;SDS011;20128;45.582;5.298;2024-01-30T09:00:45;23.90;;;13.88;;
33826;SDS011;20128;45.582;5.298;2024-01-30T09:03:10;28.40;;;17.90;;
33826;SDS011;20128;45.582;5.298;2024-01-30T09:05:36;31.65;;;12.50;;
33826;SDS011;20128;45.582;5.298;2024-01-30T09:08:02;19.92;;;10.07;;
33826;SDS011;20128;45.582;5.298;2024-01-30T09:10:27;25.05;;;10.90;;
33826;SDS011;20128;45.582;5.298;2024-01-30T09:12:53;20.80;;;10.43;;
33826;SDS011;20128;45.582;5.298;2024-01-30T09:15:18;24.60;;;11.40;;
33826;SDS011;20128;45.582;5.298;2024-01-30T09:17:44;31.23;;;11.93;;
33826;SDS011;20128;45.582;5.298;2024-01-30T09:20:10;24.20;;;11.38;;
33826;SDS011;20128;45.582;5.298;2024-01-30T09:22:36;19.52;;;9.57;;
33826;SDS011;20128;45.582;5.298;2024-01-30T09:25:02;19.75;;;10.93;;
33826;SDS011;20128;45.582;5.298;2024-01-30T09:27:28;15.43;;;8.75;;
33826;SDS011;20128;45.582;5.298;2024-01-30T09:29:53;14.82;;;7.95;;
33826;SDS011;20128;45.582;5.298;2024-01-30T09:32:19;18.65;;;8.40;;
33826;SDS011;20128;45.582;5.298;2024-01-30T09:34:44;14.65;;;7.47;;
33826;SDS011;20128;45.582;5.298;2024-01-30T09:37:10;15.77;;;7.45;;
33826;SDS011;20128;45.582;5.298;2024-01-30T09:39:36;20.25;;;7.97;;
33826;SDS011;20128;45.582;5.298;2024-01-30T09:42:05;20.13;;;7.43;;
33826;SDS011;20128;45.582;5.298;2024-01-30T09:44:42;14.98;;;6.30;;
33826;SDS011;20128;45.582;5.298;2024-01-30T09:47:09;13.65;;;6.18;;
33826;SDS011;20128;45.582;5.298;2024-01-30T09:49:35;19.98;;;7.40;;
33826;SDS011;20128;45.582;5.298;2024-01-30T09:52:03;18.98;;;8.38;;
33826;SDS011;20128;45.582;5.298;2024-01-30T09:54:30;15.45;;;6.57;;
33826;SDS011;20128;45.582;5.298;2024-01-30T09:56:56;13.38;;;6.03;;
33826;SDS011;20128;45.582;5.298;2024-01-30T09:59:23;13.50;;;6.50;;
33826;SDS011;20128;45.582;5.298;2024-01-30T10:01:52;12.80;;;6.47;;
33826;SDS011;20128;45.582;5.298;2024-01-30T10:04:18;9.98;;;5.30;;
33826;SDS011;20128;45.582;5.298;2024-01-30T10:06:44;10.45;;;6.65;;
33826;SDS011;20128;45.582;5.298;2024-01-30T10:09:09;9.80;;;5.70;;
33826;SDS011;20128;45.582;5.298;2024-01-30T10:11:36;15.80;;;6.60;;
33826;SDS011;20128;45.582;5.298;2024-01-30T10:14:02;8.32;;;5.32;;
33826;SDS011;20128;45.582;5.298;2024-01-30T10:16:28;10.73;;;5.65;;
33826;SDS011;20128;45.582;5.298;2024-01-30T10:18:53;12.13;;;5.90;;
33826;SDS011;20128;45.582;5.298;2024-01-30T10:21:20;8.57;;;5.20;;
33826;SDS011;20128;45.582;5.298;2024-01-30T10:23:46;15.35;;;5.97;;
33826;SDS011;20128;45.582;5.298;2024-01-30T10:26:12;8.55;;;4.65;;
33826;SDS011;20128;45.582;5.298;2024-01-30T10:28:38;11.18;;;5.28;;
33826;SDS011;20128;45.582;5.298;2024-01-30T10:31:03;13.82;;;4.65;;
33826;SDS011;20128;45.582;5.298;2024-01-30T10:33:31;10.27;;;4.90;;
33826;SDS011;20128;45.582;5.298;2024-01-30T10:36:00;16.90;;;5.28;;
33826;SDS011;20128;45.582;5.298;2024-01-30T10:38:29;13.57;;;4.45;;
33826;SDS011;20128;45.582;5.298;2024-01-30T10:40:59;15.15;;;5.28;;
33826;SDS011;20128;45.582;5.298;2024-01-30T10:43:33;15.35;;;5.72;;
33826;SDS011;20128;45.582;5.298;2024-01-30T10:46:11;8.55;;;4.70;;
33826;SDS011;20128;45.582;5.298;2024-01-30T10:48:46;10.93;;;3.77;;
33826;SDS011;20128;45.582;5.298;2024-01-30T10:51:22;10.93;;;4.43;;
33826;SDS011;20128;45.582;5.298;2024-01-30T10:53:48;10.65;;;4.53;;
33826;SDS011;20128;45.582;5.298;2024-01-30T10:56:16;8.52;;;4.50;;
33826;SDS011;20128;45.582;5.298;2024-01-30T10:58:42;10.73;;;4.38;;
33826;SDS011;20128;45.582;5.298;2024-01-30T11:01:07;21.35;;;4.70;;
33826;SDS011;20128;45.582;5.298;2024-01-30T11:03:34;9.55;;;4.45;;
33826;SDS011;20128;45.582;5.298;2024-01-30T11:06:01;7.68;;;3.90;;
33826;SDS011;20128;45.582;5.298;2024-01-30T11:08:28;12.95;;;5.00;;
33826;SDS011;20128;45.582;5.298;2024-01-30T11:10:57;13.48;;;7.30;;
33826;SDS011;20128;45.582;5.298;2024-01-30T11:13:28;9.65;;;4.32;;
33826;SDS011;20128;45.582;5.298;2024-01-30T11:15:54;12.60;;;3.85;;
33826;SDS011;20128;45.582;5.298;2024-01-30T11:18:24;9.85;;;3.72;;
33826;SDS011;20128;45.582;5.298;2024-01-30T11:20:57;10.45;;;3.75;;
33826;SDS011;20128;45.582;5.298;2024-01-30T11:23:29;9.90;;;3.90;;
33826;SDS011;20128;45.582;5.298;2024-01-30T11:25:56;10.07;;;5.10;;
33826;SDS011;20128;45.582;5.298;2024-01-30T11:28:22;11.63;;;4.32;;
33826;SDS011;20128;45.582;5.298;2024-01-30T11:30:48;12.02;;;5.97;;
33826;SDS011;20128;45.582;5.298;2024-01-30T11:33:26;10.70;;;3.60;;
33826;SDS011;20128;45.582;5.298;2024-01-30T11:35:58;41.08;;;17.15;;
33826;SDS011;20128;45.582;5.298;2024-01-30T11:38:31;18.98;;;8.68;;
33826;SDS011;20128;45.582;5.298;2024-01-30T11:40:57;12.00;;;4.18;;
33826;SDS011;20128;45.582;5.298;2024-01-30T11:43:24;8.48;;;4.55;;
33826;SDS011;20128;45.582;5.298;2024-01-30T11:45:50;15.20;;;4.18;;
33826;SDS011;20128;45.582;5.298;2024-01-30T11:48:16;10.00;;;4.32;;
33826;SDS011;20128;45.582;5.298;2024-01-30T11:50:42;9.13;;;3.28;;
33826;SDS011;20128;45.582;5.298;2024-01-30T11:53:09;10.07;;;3.55;;
33826;SDS011;20128;45.582;5.298;2024-01-30T11:55:35;11.15;;;4.10;;
33826;SDS011;20128;45.582;5.298;2024-01-30T11:58:02;7.75;;;3.15;;
33826;SDS011;20128;45.582;5.298;2024-01-30T12:00:29;6.85;;;2.97;;
33826;SDS011;20128;45.582;5.298;2024-01-30T12:02:58;10.50;;;3.38;;
33826;SDS011;20128;45.582;5.298;2024-01-30T12:05:25;10.93;;;3.40;;
33826;SDS011;20128;45.582;5.298;2024-01-30T12:07:52;9.88;;;3.58;;
33826;SDS011;20128;45.582;5.298;2024-01-30T12:10:18;6.80;;;3.10;;
33826;SDS011;20128;45.582;5.298;2024-01-30T12:12:47;10.00;;;3.00;;
33826;SDS011;20128;45.582;5.298;2024-01-30T12:15:15;7.75;;;2.78;;
33826;SDS011;20128;45.582;5.298;2024-01-30T12:17:41;6.43;;;2.88;;
33826;SDS011;20128;45.582;5.298;2024-01-30T12:20:10;5.32;;;2.60;;
33826;SDS011;20128;45.582;5.298;2024-01-30T12:22:40;9.63;;;2.60;;
33826;SDS011;20128;45.582;5.298;2024-01-30T12:25:14;8.10;;;2.88;;
33826;SDS011;20128;45.582;5.298;2024-01-30T12:27:47;6.88;;;2.80;;
33826;SDS011;20128;45.582;5.298;2024-01-30T12:30:18;11.02;;;2.60;;
33826;SDS011;20128;45.582;5.298;2024-01-30T12:32:45;9.73;;;2.85;;
33826;SDS011;20128;45.582;5.298;2024-01-30T12:35:15;9.38;;;2.60;;
33826;SDS011;20128;45.582;5.298;2024-01-30T12:37:42;12.38;;;3.10;;
33826;SDS011;20128;45.582;5.298;2024-01-30T12:40:09;8.02;;;2.90;;
33826;SDS011;20128;45.582;5.298;2024-01-30T12:42:36;8.07;;;2.72;;
33826;SDS011;20128;45.582;5.298;2024-01-30T12:45:02;5.18;;;2.75;;
33826;SDS011;20128;45.582;5.298;2024-01-30T12:47:29;9.32;;;3.00;;
33826;SDS011;20128;45.582;5.298;2024-01-30T12:49:54;4.72;;;2.58;;
33826;SDS011;20128;45.582;5.298;2024-01-30T12:52:20;8.88;;;2.97;;
33826;SDS011;20128;45.582;5.298;2024-01-30T12:54:47;7.50;;;2.97;;
33826;SDS011;20128;45.582;5.298;2024-01-30T12:57:13;8.43;;;2.63;;
33826;SDS011;20128;45.582;5.298;2024-01-30T12:59:39;5.90;;;2.50;;
33826;SDS011;20128;45.582;5.298;2024-01-30T13:02:05;7.72;;;2.58;;
33826;SDS011;20128;45.582;5.298;2024-01-30T13:04:31;7.47;;;2.38;;
33826;SDS011;20128;45.582;5.298;2024-01-30T13:06:58;5.72;;;2.95;;
33826;SDS011;20128;45.582;5.298;2024-01-30T13:09:25;5.18;;;2.50;;
33826;SDS011;20128;45.582;5.298;2024-01-30T13:11:51;8.98;;;2.83;;
33826;SDS011;20128;45.582;5.298;2024-01-30T13:14:16;8.38;;;2.95;;
33826;SDS011;20128;45.582;5.298;2024-01-30T13:16:42;7.93;;;2.70;;
33826;SDS011;20128;45.582;5.298;2024-01-30T13:19:08;5.93;;;2.50;;
33826;SDS011;20128;45.582;5.298;2024-01-30T13:21:34;3.78;;;2.28;;
33826;SDS011;20128;45.582;5.298;2024-01-30T13:24:00;5.35;;;2.78;;
33826;SDS011;20128;45.582;5.298;2024-01-30T13:26:25;4.15;;;2.35;;
33826;SDS011;20128;45.582;5.298;2024-01-30T13:28:51;5.20;;;2.45;;
33826;SDS011;20128;45.582;5.298;2024-01-30T13:31:16;5.68;;;2.47;;
33826;SDS011;20128;45.582;5.298;2024-01-30T13:33:42;5.97;;;2.63;;
33826;SDS011;20128;45.582;5.298;2024-01-30T13:36:09;5.13;;;2.25;;
33826;SDS011;20128;45.582;5.298;2024-01-30T13:38:36;4.05;;;1.90;;
33826;SDS011;20128;45.582;5.298;2024-01-30T13:41:01;4.35;;;2.28;;
33826;SDS011;20128;45.582;5.298;2024-01-30T13:43:27;6.53;;;2.08;;
33826;SDS011;20128;45.582;5.298;2024-01-30T13:45:53;5.78;;;2.63;;
33826;SDS011;20128;45.582;5.298;2024-01-30T13:48:19;3.92;;;1.83;;
33826;SDS011;20128;45.582;5.298;2024-01-30T13:50:45;8.38;;;2.60;;
33826;SDS011;20128;45.582;5.298;2024-01-30T13:53:11;8.38;;;2.00;;
33826;SDS011;20128;45.582;5.298;2024-01-30T13:55:37;7.22;;;2.50;;
33826;SDS011;20128;45.582;5.298;2024-01-30T13:58:04;8.13;;;2.35;;
33826;SDS011;20128;45.582;5.298;2024-01-30T14:00:30;7.95;;;2.30;;
33826;SDS011;20128;45.582;5.298;2024-01-30T14:02:55;9.93;;;2.67;;
33826;SDS011;20128;45.582;5.298;2024-01-30T14:05:23;7.13;;;2.53;;
33826;SDS011;20128;45.582;5.298;2024-01-30T14:07:49;10.65;;;2.92;;
33826;SDS011;20128;45.582;5.298;2024-01-30T14:10:16;11.82;;;3.70;;
33826;SDS011;20128;45.582;5.298;2024-01-30T14:12:42;6.75;;;2.15;;
33826;SDS011;20128;45.582;5.298;2024-01-30T14:15:09;6.57;;;2.35;;
33826;SDS011;20128;45.582;5.298;2024-01-30T14:17:35;6.63;;;2.35;;
33826;SDS011;20128;45.582;5.298;2024-01-30T14:20:01;10.57;;;2.40;;
33826;SDS011;20128;45.582;5.298;2024-01-30T14:22:29;4.80;;;2.08;;
33826;SDS011;20128;45.582;5.298;2024-01-30T14:24:54;6.28;;;2.22;;
33826;SDS011;20128;45.582;5.298;2024-01-30T14:27:21;7.63;;;2.13;;